Time;durP1;ratioP1;P1;durP2;ratioP2;P2;SDS_P1;SDS_P2;PMS_P1;PMS_P2;Temp;Humidity;BMP_temperature;BMP_pressure;BME280_temperature;BME280_humidity;BME280_pressure;Samples;Min_cycle;Max_cycle;Signal;HPM_P1;HPM_P2
2022/12/18 00:02:42;;;;;;;1999.90;999.90;;;;;;;-5.73;82.10;100367.00;10310587;23;20241;-77
2022/12/18 00:06:45;;;;;;;1999.90;999.90;;;;;;;-5.75;81.54;100375.19;10332590;23;19997;-77
2022/12/18 00:10:48;;;;;;;1999.90;999.90;;;;;;;-5.78;81.69;100353.97;10353760;23;20032;-81
2022/12/18 00:14:50;;;;;;;1999.90;999.90;;;;;;;-5.78;82.42;100353.97;10353396;23;20013;-78
2022/12/18 00:18:53;;;;;;;;;;;;;;;-5.78;81.87;100353.09;10336862;23;20015;-78
2022/12/18 00:22:55;;;;;;;1999.90;999.90;;;;;;;-5.83;82.55;100365.41;10336836;23;19900;-78
2022/12/18 00:26:57;;;;;;;1999.90;999.90;;;;;;;-5.83;83.10;100362.88;10353358;23;20060;-81
2022/12/18 00:31:02;;;;;;;1999.90;999.90;;;;;;;-5.84;81.85;100370.34;10352936;23;19996;-80
2022/12/18 00:35:05;;;;;;;1999.90;999.90;;;;;;;-5.82;81.88;100372.22;10277304;22;20024;-76
2022/12/18 00:39:07;;;;;;;1999.90;999.90;;;;;;;-5.82;82.21;100367.16;10278663;23;20115;-76
2022/12/18 00:43:09;;;;;;;1999.90;999.90;;;;;;;-5.82;83.02;100373.88;10276680;23;20052;-76
2022/12/18 00:47:10;;;;;;;1999.90;999.90;;;;;;;-5.85;82.55;100369.47;10267302;23;20103;-77
2022/12/18 00:51:11;;;;;;;1999.90;999.90;;;;;;;-5.86;83.02;100367.69;10252391;23;20020;-76
2022/12/18 00:55:13;;;;;;;1999.90;999.90;;;;;;;-5.84;82.88;100377.94;10294752;23;20427;-76
2022/12/18 00:59:16;;;;;;;1999.90;999.90;;;;;;;-5.83;82.64;100370.47;10276515;23;20135;-76
2022/12/18 01:03:17;;;;;;;1999.90;999.90;;;;;;;-5.81;81.82;100365.50;10268896;23;20059;-75
2022/12/18 01:07:18;;;;;;;1999.90;999.90;;;;;;;-5.80;82.40;100365.63;10275661;23;20442;-76
2022/12/18 01:11:21;;;;;;;1999.90;999.90;;;;;;;-5.80;82.14;100379.91;10293820;23;20145;-76
2022/12/18 01:15:22;;;;;;;1999.90;999.90;;;;;;;-5.79;82.63;100386.75;10270758;23;20611;-75
2022/12/18 01:19:23;;;;;;;1999.90;999.90;;;;;;;-5.75;82.91;100380.25;10274098;23;20048;-76
2022/12/18 01:23:27;;;;;;;1999.90;999.90;;;;;;;-5.74;82.15;100371.91;10276105;23;20063;-77
2022/12/18 01:27:28;;;;;;;1999.90;999.90;;;;;;;-5.77;82.19;100375.97;10276511;23;20052;-79
2022/12/18 01:31:32;;;;;;;1999.90;999.90;;;;;;;-5.73;82.23;100386.34;10269999;23;20063;-76
2022/12/18 01:35:39;;;;;;;1999.90;999.90;;;;;;;-5.75;82.63;100383.66;10276800;23;20028;-76
2022/12/18 01:39:40;;;;;;;1999.90;999.90;;;;;;;-5.78;81.39;100391.91;10276705;23;20422;-76
2022/12/18 01:43:51;;;;;;;1999.90;999.90;;;;;;;-5.81;81.67;100388.28;10277325;23;20025;-76
2022/12/18 01:47:59;;;;;;;1999.90;999.90;;;;;;;-5.83;82.29;100382.22;10271178;23;20040;-76
2022/12/18 01:52:00;;;;;;;1999.90;999.90;;;;;;;-5.89;82.34;100386.81;10276205;23;20096;-76
2022/12/18 01:56:03;;;;;;;1999.90;999.90;;;;;;;-5.89;81.82;100384.28;10278698;23;20091;-75
2022/12/18 02:00:10;;;;;;;1999.90;999.90;;;;;;;-5.92;81.22;100386.63;10291871;23;20020;-75
2022/12/18 02:04:26;;;;;;;1999.90;999.90;;;;;;;-5.97;81.66;100370.22;10273554;23;20104;-75
2022/12/18 02:08:46;;;;;;;1999.90;999.90;;;;;;;-5.98;81.27;100376.91;10290765;23;20070;-76
2022/12/18 02:13:14;;;;;;;1999.90;999.90;;;;;;;-6.00;80.97;100386.03;10274437;23;20103;-75
2022/12/18 02:17:20;;;;;;;1999.90;999.90;;;;;;;-6.04;82.04;100386.56;10269058;23;20064;-76
2022/12/18 02:21:33;;;;;;;1999.90;999.90;;;;;;;-6.06;81.22;100377.97;10275607;23;20020;-75
2022/12/18 02:26:05;;;;;;;1999.90;999.90;;;;;;;-6.08;80.95;100386.22;10275710;23;20104;-76
2022/12/18 02:30:08;;;;;;;1999.90;999.90;;;;;;;-6.14;81.20;100396.72;10269067;23;20088;-76
2022/12/18 02:34:11;;;;;;;1999.90;999.90;;;;;;;-6.20;81.44;100384.50;10274818;23;20611;-75
2022/12/18 02:38:15;;;;;;;1999.90;999.90;;;;;;;-6.24;80.99;100390.09;10275938;23;20107;-78
2022/12/18 02:42:17;;;;;;;1999.90;999.90;;;;;;;-6.25;81.62;100392.50;10292562;23;20025;-76
2022/12/18 02:46:27;;;;;;;1999.90;999.90;;;;;;;-6.25;81.31;100377.34;10267772;23;20028;-75
2022/12/18 02:50:40;;;;;;;1999.90;999.90;;;;;;;-6.29;81.60;100371.13;10275661;23;20031;-75
2022/12/18 02:55:07;;;;;;;;;;;;;;;-6.29;81.41;100371.13;10277911;23;20104;-76
2022/12/18 02:59:23;;;;;;;1999.90;999.90;;;;;;;-6.33;81.48;100370.78;10275991;23;20382;-75
2022/12/18 03:03:33;;;;;;;1999.90;999.90;;;;;;;-6.35;81.64;100372.31;10279269;23;20075;-75
2022/12/18 03:07:48;;;;;;;1999.90;999.90;;;;;;;-6.38;81.81;100378.03;10280585;23;20020;-76
2022/12/18 03:16:26;;;;;;;1999.90;999.90;;;;;;;-6.47;81.19;100405.06;10272242;23;20056;-75
2022/12/18 03:20:33;;;;;;;1999.90;999.90;;;;;;;-6.50;81.57;100409.88;10279049;23;20100;-75
2022/12/18 03:24:39;;;;;;;1999.90;999.90;;;;;;;-6.54;80.82;100403.72;10296007;23;20026;-75
2022/12/18 03:28:50;;;;;;;1999.90;999.90;;;;;;;-6.60;81.35;100403.25;10278374;23;20020;-77
2022/12/18 03:32:58;;;;;;;1999.90;999.90;;;;;;;-6.63;80.66;100409.72;10271499;23;20111;-76
2022/12/18 03:37:02;;;;;;;1999.90;999.90;;;;;;;-6.64;81.33;100407.91;10277110;23;20464;-75
2022/12/18 03:41:32;;;;;;;1999.90;999.90;;;;;;;-6.64;80.97;100406.28;10278822;23;20096;-77
2022/12/18 03:45:37;;;;;;;1999.90;999.90;;;;;;;-6.70;81.78;100411.72;10272189;23;20104;-75
2022/12/18 03:50:08;;;;;;;1999.90;999.90;;;;;;;-6.71;81.19;100404.91;10296815;23;20104;-75
2022/12/18 03:54:14;;;;;;;1999.90;999.90;;;;;;;-6.71;81.19;100396.44;10278705;23;20017;-75
2022/12/18 03:58:21;;;;;;;1999.90;999.90;;;;;;;-6.73;81.39;100397.97;10279337;23;20119;-76
2022/12/18 04:02:24;;;;;;;1999.90;999.90;;;;;;;-6.75;80.94;100404.56;10270551;23;20483;-76
2022/12/18 04:06:27;;;;;;;1999.90;999.90;;;;;;;-6.77;80.97;100395.97;10274768;23;20412;-77
2022/12/18 04:10:29;;;;;;;;;;;;;;;-6.77;81.43;100390.94;10274152;23;20071;-76
2022/12/18 04:14:35;;;;;;;1999.90;999.90;;;;;;;-6.81;81.05;100386.41;10274246;23;19920;-75
2022/12/18 04:18:36;;;;;;;1999.90;999.90;;;;;;;-6.89;80.88;100383.25;10275284;23;20890;-75
2022/12/18 04:22:38;;;;;;;1999.90;999.90;;;;;;;-6.92;81.26;100383.00;10273988;23;20637;-75
2022/12/18 04:26:39;;;;;;;1999.90;999.90;;;;;;;-6.93;80.93;100382.88;10275402;23;20104;-75
2022/12/18 04:30:41;;;;;;;1999.90;999.90;;;;;;;-6.98;80.83;100395.16;10288442;23;20059;-77
2022/12/18 04:34:43;;;;;;;1999.90;999.90;;;;;;;-6.99;81.03;100388.34;10327550;23;20016;-78
2022/12/18 04:38:45;;;;;;;1999.90;999.90;;;;;;;-7.06;81.47;100381.88;10345137;23;20026;-77
2022/12/18 04:42:46;;;;;;;1999.90;999.90;;;;;;;-7.10;80.92;100387.47;10327547;23;20068;-77
2022/12/18 04:46:48;;;;;;;1999.90;999.90;;;;;;;-7.11;81.00;100392.38;10301562;23;20035;-75
2022/12/18 04:50:50;;;;;;;1999.90;999.90;;;;;;;-7.12;81.70;100390.63;10290027;23;20063;-74
2022/12/18 04:54:51;;;;;;;1999.90;999.90;;;;;;;-7.12;81.32;100395.66;10276104;23;20107;-75
2022/12/18 04:58:52;;;;;;;1999.90;999.90;;;;;;;-7.18;81.46;100398.59;10293606;23;20490;-75
2022/12/18 05:02:54;;;;;;;1999.90;999.90;;;;;;;-7.21;80.91;100410.91;10266960;23;20112;-76
2022/12/18 05:06:55;;;;;;;1999.90;999.90;;;;;;;-7.23;81.41;100402.34;10276768;23;20024;-75
2022/12/18 05:11:07;;;;;;;1999.90;999.90;;;;;;;-7.26;80.84;100409.69;10276919;23;20028;-75
2022/12/18 05:15:09;;;;;;;1999.90;999.90;;;;;;;-7.34;80.78;100419.16;10270181;23;20125;-75
2022/12/18 05:19:11;;;;;;;1999.90;999.90;;;;;;;-7.33;81.32;100427.59;10272206;23;20025;-75
2022/12/18 05:23:13;;;;;;;1999.90;999.90;;;;;;;-7.35;81.73;100431.63;10278306;23;20483;-75
2022/12/18 05:27:14;;;;;;;1999.90;999.90;;;;;;;-7.37;81.30;100439.06;10277286;23;20104;-75
2022/12/18 05:31:16;;;;;;;1999.90;999.90;;;;;;;-7.40;81.43;100441.31;10267063;23;20111;-74
2022/12/18 05:35:17;;;;;;;1999.90;999.90;;;;;;;-7.42;81.15;100437.78;10274172;23;20427;-77
2022/12/18 05:39:19;;;;;;;1999.90;999.90;;;;;;;-7.46;81.52;100442.47;10274042;23;20266;-75
2022/12/18 05:43:22;;;;;;;1999.90;999.90;;;;;;;-7.49;81.69;100447.25;10293189;23;20096;-75
2022/12/18 05:47:23;;;;;;;1999.90;999.90;;;;;;;-7.55;81.90;100447.63;10267886;23;20039;-75
2022/12/18 05:51:25;;;;;;;1999.90;999.90;;;;;;;-7.57;82.27;100446.59;10275408;23;20727;-76
2022/12/18 05:55:26;;;;;;;1999.90;999.90;;;;;;;-7.57;82.35;100445.72;10275865;23;20017;-74
2022/12/18 05:59:28;;;;;;;1999.90;999.90;;;;;;;-7.56;82.30;100455.06;10275702;23;20112;-75
2022/12/18 06:03:30;;;;;;;1999.90;999.90;;;;;;;-7.59;81.97;100447.25;10242791;23;20494;-75
2022/12/18 06:07:38;;;;;;;1999.90;999.90;;;;;;;-7.61;81.81;100460.59;10273195;23;20012;-75
2022/12/18 06:11:40;;;;;;;1999.90;999.90;;;;;;;-7.63;81.53;100453.66;10275058;23;20031;-76
2022/12/18 06:15:41;;;;;;;1999.90;999.90;;;;;;;-7.72;81.69;100447.84;10267677;23;20028;-76
2022/12/18 06:19:43;;;;;;;1999.90;999.90;;;;;;;-7.71;82.22;100449.63;10274127;23;20110;-74
2022/12/18 06:23:44;;;;;;;1999.90;999.90;;;;;;;-7.73;81.53;100454.53;10274618;23;20021;-74
2022/12/18 06:27:47;;;;;;;1999.90;999.90;;;;;;;-7.76;81.64;100460.94;10274382;23;20564;-75
2022/12/18 06:31:49;;;;;;;1999.90;999.90;;;;;;;-7.79;81.98;100460.69;10267562;23;20099;-77
2022/12/18 06:35:50;;;;;;;1999.90;999.90;;;;;;;-7.82;82.15;100458.81;10274446;23;20423;-75
2022/12/18 06:39:56;;;;;;;1999.90;999.90;;;;;;;-7.88;82.05;100458.28;10276040;23;20475;-75
2022/12/18 06:43:58;;;;;;;1999.90;999.90;;;;;;;-7.89;82.22;100461.56;10274631;23;20486;-75
2022/12/18 06:48:00;;;;;;;1999.90;999.90;;;;;;;-7.92;82.07;100468.84;10265647;23;20082;-75
2022/12/18 06:52:02;;;;;;;1999.90;999.90;;;;;;;-7.94;82.17;100475.38;10274036;23;20027;-75
2022/12/18 06:56:06;;;;;;;1999.90;999.90;;;;;;;-7.99;81.91;100487.59;10274145;23;20099;-75
2022/12/18 07:00:11;;;;;;;1999.90;999.90;;;;;;;-8.09;82.06;100500.16;10265843;23;20385;-74
2022/12/18 07:04:12;;;;;;;1999.90;999.90;;;;;;;-8.12;82.22;100507.44;10274182;23;20051;-75
2022/12/18 07:08:14;;;;;;;1999.90;999.90;;;;;;;-8.17;81.86;100510.31;10273633;23;20099;-74
2022/12/18 07:12:16;;;;;;;1999.90;999.90;;;;;;;-8.22;82.26;100515.84;10274878;23;20082;-74
2022/12/18 07:16:19;;;;;;;1999.90;999.90;;;;;;;-8.26;82.59;100515.44;10272611;23;20095;-75
2022/12/18 07:20:25;;;;;;;1999.90;999.90;;;;;;;-8.29;82.61;100517.69;10271950;23;20701;-74
2022/12/18 07:24:27;;;;;;;1999.90;999.90;;;;;;;-8.37;82.15;100521.22;10274031;23;20099;-75
2022/12/18 07:28:29;;;;;;;1999.90;999.90;;;;;;;-8.41;82.11;100526.75;10270623;23;20078;-74
2022/12/18 07:32:30;;;;;;;1999.90;999.90;;;;;;;-8.43;82.49;100526.63;10262243;23;20039;-74
2022/12/18 07:36:32;;;;;;;1999.90;999.90;;;;;;;-8.38;82.10;100527.00;10268910;23;20024;-74
2022/12/18 07:40:33;;;;;;;1999.90;999.90;;;;;;;-8.36;82.32;100525.50;10270240;23;20112;-74
2022/12/18 07:44:35;;;;;;;1999.90;999.90;;;;;;;-8.34;81.94;100524.88;10270617;23;20021;-74
2022/12/18 07:48:37;;;;;;;1999.90;999.90;;;;;;;-8.34;82.33;100513.94;10263152;23;20095;-75
2022/12/18 07:52:38;;;;;;;1999.90;999.90;;;;;;;-8.32;82.31;100508.22;10269704;23;20051;-73
2022/12/18 07:56:40;;;;;;;1999.90;999.90;;;;;;;-8.27;82.45;100501.97;10269879;23;20116;-73
2022/12/18 08:00:41;;;;;;;1999.90;999.90;;;;;;;-8.18;82.48;100508.56;10264623;23;20132;-74
2022/12/18 08:04:45;;;;;;;1999.90;999.90;;;;;;;-8.05;83.00;100514.81;10269708;23;20017;-73
2022/12/18 08:08:46;;;;;;;1999.90;999.90;;;;;;;-7.91;83.16;100515.97;10268105;23;20021;-74
2022/12/18 08:12:51;;;;;;;1999.90;999.90;;;;;;;-7.76;83.33;100519.81;10270963;23;20020;-74
2022/12/18 08:16:52;;;;;;;1999.90;999.90;;;;;;;-7.59;83.47;100511.16;10260352;23;20345;-74
2022/12/18 08:20:55;;;;;;;1999.90;999.90;;;;;;;-7.42;82.75;100515.97;10268868;23;20107;-74
2022/12/18 08:24:56;;;;;;;1999.90;999.90;;;;;;;-7.31;83.21;100522.81;10267678;23;20070;-74
2022/12/18 08:28:59;;;;;;;1999.90;999.90;;;;;;;-7.19;83.19;100524.59;10271096;23;20052;-74
2022/12/18 08:33:01;;;;;;;1999.90;999.90;;;;;;;-7.10;82.87;100515.28;10263696;23;20027;-74
2022/12/18 08:37:03;;;;;;;1999.90;999.90;;;;;;;-7.04;83.16;100495.56;10273042;23;20024;-75
2022/12/18 08:41:08;;;;;;;1999.90;999.90;;;;;;;-6.98;82.48;100500.28;10271696;23;20521;-75
2022/12/18 08:45:10;;;;;;;1999.90;999.90;;;;;;;-6.97;83.25;100494.47;10264613;23;20009;-74
2022/12/18 08:49:12;;;;;;;1999.90;999.90;;;;;;;-6.91;83.49;100510.09;10272902;23;20032;-77
2022/12/18 08:53:14;;;;;;;1999.90;999.90;;;;;;;-6.83;83.55;100520.03;10273173;23;20021;-74
2022/12/18 08:57:15;;;;;;;1999.90;999.90;;;;;;;-6.74;83.57;100527.50;10276810;23;20020;-75
2022/12/18 09:01:17;;;;;;;1999.90;999.90;;;;;;;-6.70;83.35;100530.41;10265539;23;20514;-73
2022/12/18 09:05:19;;;;;;;1999.90;999.90;;;;;;;-6.64;83.81;100526.59;10270059;23;20020;-72
2022/12/18 09:09:21;;;;;;;1999.90;999.90;;;;;;;-6.57;84.63;100542.38;10270561;23;20020;-72
2022/12/18 09:13:22;;;;;;;1999.90;999.90;;;;;;;-6.48;84.57;100527.09;10272561;23;20063;-77
2022/12/18 09:17:24;;;;;;;1999.90;999.90;;;;;;;-6.43;84.37;100533.41;10264554;23;20051;-77
2022/12/18 09:21:28;;;;;;;1999.90;999.90;;;;;;;-6.37;84.86;100538.06;10274466;23;20044;-76
2022/12/18 09:25:33;;;;;;;1999.90;999.90;;;;;;;-6.28;85.07;100544.75;10274162;23;20044;-74
2022/12/18 09:29:34;;;;;;;1999.90;999.90;;;;;;;-6.23;84.60;100546.00;10274854;23;20052;-75
2022/12/18 09:33:36;;;;;;;1999.90;999.90;;;;;;;-6.18;84.42;100516.91;10265839;23;20024;-75
2022/12/18 09:37:37;;;;;;;1999.90;999.90;;;;;;;-6.10;85.11;100520.06;10275237;23;20032;-75
2022/12/18 09:41:41;;;;;;;1999.90;999.90;;;;;;;-6.02;84.60;100534.19;10273541;23;20028;-76
2022/12/18 09:45:45;;;;;;;1999.90;999.90;;;;;;;-5.95;84.63;100530.47;10265641;23;20132;-80
2022/12/18 09:49:52;;;;;;;1999.90;999.90;;;;;;;-5.90;84.60;100524.16;10274697;23;20032;-77
2022/12/18 09:54:00;;;;;;;1999.90;999.90;;;;;;;-5.83;84.67;100539.88;10292288;23;20103;-75
2022/12/18 09:58:13;;;;;;;1999.90;999.90;;;;;;;-5.74;84.71;100524.56;10272749;23;20395;-75
2022/12/18 10:02:20;;;;;;;;;;;;;;;-5.69;84.90;100514.78;10293696;23;20032;-77
2022/12/18 10:06:39;;;;;;;1999.90;999.90;;;;;;;-5.64;83.65;100524.50;10277911;23;19920;-79
2022/12/18 10:10:52;;;;;;;1999.90;999.90;;;;;;;-5.56;83.98;100514.97;10274930;23;20051;-76
2022/12/18 10:15:04;;;;;;;1999.90;999.90;;;;;;;-5.54;84.72;100508.38;10290485;23;20012;-77
2022/12/18 10:19:24;;;;;;;1999.90;999.90;;;;;;;-5.51;84.23;100506.09;10274409;23;20033;-77
2022/12/18 10:23:37;;;;;;;1999.90;999.90;;;;;;;-5.49;83.83;100490.25;10291170;23;20034;-76
2022/12/18 10:27:46;;;;;;;1999.90;999.90;;;;;;;-5.41;83.86;100485.75;10273569;23;20024;-79
2022/12/18 10:31:47;;;;;;;1999.90;999.90;;;;;;;-5.36;84.03;100476.00;10263323;23;20107;-81
2022/12/18 10:35:52;;;;;;;1999.90;999.90;;;;;;;-5.34;83.75;100484.59;10273965;23;20034;-78
2022/12/18 10:40:08;;;;;;;1999.90;999.90;;;;;;;-5.31;83.88;100473.06;10290495;23;20107;-80
2022/12/18 10:44:20;;;;;;;1999.90;999.90;;;;;;;-5.27;83.81;100469.97;10289455;23;20036;-77
2022/12/18 10:48:24;;;;;;;1999.90;999.90;;;;;;;-5.18;83.63;100467.28;10261962;23;20111;-77
2022/12/18 10:52:27;;;;;;;1999.90;999.90;;;;;;;-5.09;83.60;100455.28;10273101;23;20052;-75
2022/12/18 10:56:33;;;;;;;1999.90;999.90;;;;;;;-4.98;83.79;100451.91;10272296;23;20025;-75
2022/12/18 11:00:35;;;;;;;1999.90;999.90;;;;;;;-4.83;83.59;100457.22;10277984;23;20027;-79
2022/12/18 11:04:50;;;;;;;1999.90;999.90;;;;;;;-4.77;82.97;100446.66;10333751;23;20012;-77
2022/12/18 11:09:04;;;;;;;1999.90;999.90;;;;;;;-4.76;83.10;100434.09;10319427;23;20017;-77
2022/12/18 11:13:24;;;;;;;1999.90;999.90;;;;;;;-4.68;83.20;100437.16;10318652;23;20016;-76
2022/12/18 11:17:31;;;;;;;1999.90;999.90;;;;;;;-4.63;82.27;100431.69;10319531;23;20032;-76
2022/12/18 11:21:39;;;;;;;1999.90;999.90;;;;;;;-4.57;82.50;100427.03;10295915;23;20534;-74
2022/12/18 11:25:51;;;;;;;1999.90;999.90;;;;;;;-4.43;82.78;100419.56;10295643;23;20028;-74
2022/12/18 11:30:09;;;;;;;1999.90;999.90;;;;;;;-4.33;82.38;100420.28;10309993;23;20000;-76
2022/12/18 11:34:17;;;;;;;1999.90;999.90;;;;;;;-4.19;82.18;100417.84;10321494;23;20020;-76
2022/12/18 11:38:38;;;;;;;1999.90;999.90;;;;;;;-4.14;81.75;100403.84;10321262;23;20017;-76
2022/12/18 11:43:06;;;;;;;1999.90;999.90;;;;;;;-4.11;81.46;100409.16;10322333;23;20009;-76
2022/12/18 11:47:28;;;;;;;1999.90;999.90;;;;;;;-4.11;81.39;100414.22;10321913;23;20024;-76
2022/12/18 11:51:38;;;;;;;1999.90;999.90;;;;;;;-4.14;80.94;100407.25;10321722;23;20080;-78
2022/12/18 11:55:46;;;;;;;1999.90;999.90;;;;;;;-4.09;81.08;100415.19;10322799;23;20040;-76
2022/12/18 11:59:58;;;;;;;1999.90;999.90;;;;;;;-4.02;81.05;100413.19;10322910;23;20044;-78
2022/12/18 12:04:15;;;;;;;1999.90;999.90;;;;;;;-3.98;81.40;100399.94;10327439;23;20025;-77
2022/12/18 12:08:43;;;;;;;1999.90;999.90;;;;;;;-3.92;80.61;100393.53;10324506;23;20020;-76
2022/12/18 12:13:27;;;;;;;1999.90;999.90;;;;;;;-3.89;80.35;100401.34;10278693;23;20056;-77
2022/12/18 12:17:45;;;;;;;1999.90;999.90;;;;;;;-3.89;79.94;100381.06;10294549;23;20027;-76
2022/12/18 12:22:13;;;;;;;1999.90;999.90;;;;;;;-3.81;80.10;100369.78;10346316;23;20017;-77
2022/12/18 12:26:36;;;;;;;1999.90;999.90;;;;;;;-3.76;79.78;100382.00;10347409;23;20030;-79
2022/12/18 12:30:52;;;;;;;1999.90;999.90;;;;;;;-3.70;79.63;100379.00;10319636;23;20039;-75
2022/12/18 12:35:19;;;;;;;1999.90;999.90;;;;;;;-3.64;80.00;100364.19;10278576;23;20107;-76
2022/12/18 12:39:29;;;;;;;1999.90;999.90;;;;;;;-3.60;79.50;100365.25;10281619;23;20082;-76
2022/12/18 12:43:49;;;;;;;1999.90;999.90;;;;;;;-3.56;79.46;100359.63;10279376;23;20071;-76
2022/12/18 12:47:52;;;;;;;1999.90;999.90;;;;;;;-3.48;79.78;100351.72;10272387;23;20033;-75
2022/12/18 12:52:16;;;;;;;1999.90;999.90;;;;;;;-3.44;79.55;100351.16;10279972;23;20043;-76
2022/12/18 12:56:19;;;;;;;1999.90;999.90;;;;;;;-3.39;79.28;100348.94;10286354;23;20348;-75
2022/12/18 13:00:23;;;;;;;1999.90;999.90;;;;;;;-3.32;78.90;100334.97;10269768;23;20488;-75
2022/12/18 13:04:43;;;;;;;1999.90;999.90;;;;;;;-3.24;78.76;100328.72;10277723;23;20021;-75
2022/12/18 13:09:00;;;;;;;1999.90;999.90;;;;;;;-3.16;79.16;100328.47;10295134;23;20380;-75
2022/12/18 13:13:15;;;;;;;1999.90;999.90;;;;;;;-3.10;79.29;100307.66;10277407;23;20453;-75
2022/12/18 13:17:29;;;;;;;1999.90;999.90;;;;;;;-3.02;78.80;100310.69;10269832;23;20029;-75
2022/12/18 13:21:33;;;;;;;1999.90;999.90;;;;;;;-3.03;78.64;100306.41;10294754;23;20032;-75
2022/12/18 13:25:38;;;;;;;1999.90;999.90;;;;;;;-3.04;78.32;100308.06;10278497;23;20016;-74
2022/12/18 13:29:42;;;;;;;1999.90;999.90;;;;;;;-2.97;78.81;100315.28;10277729;23;20025;-75
2022/12/18 13:33:46;;;;;;;1999.90;999.90;;;;;;;-2.93;79.03;100316.34;10245826;23;20021;-75
2022/12/18 13:38:25;;;;;;;1999.90;999.90;;;;;;;-2.94;79.03;100312.06;10279305;23;20021;-76
2022/12/18 13:47:02;;;;;;;1999.90;999.90;;;;;;;-2.92;78.26;100306.28;10271878;23;20052;-76
2022/12/18 13:51:07;;;;;;;1999.90;999.90;;;;;;;-2.94;79.18;100299.34;10279455;23;20048;-75
2022/12/18 13:55:18;;;;;;;1999.90;999.90;;;;;;;-2.90;78.52;100294.53;10277046;23;20024;-75
2022/12/18 13:59:22;;;;;;;1999.90;999.90;;;;;;;-2.84;79.33;100301.69;10277814;23;20116;-74
2022/12/18 14:03:27;;;;;;;1999.90;999.90;;;;;;;-2.85;79.39;100295.75;10271974;23;20028;-74
2022/12/18 14:07:31;;;;;;;1999.90;999.90;;;;;;;-2.84;78.35;100299.16;10276814;23;20131;-75
2022/12/18 14:11:50;;;;;;;1999.90;999.90;;;;;;;-2.84;79.39;100286.44;10279294;23;20016;-75
2022/12/18 14:15:52;;;;;;;1999.90;999.90;;;;;;;-2.87;79.51;100293.84;10285803;23;20060;-75
2022/12/18 14:19:53;;;;;;;1999.90;999.90;;;;;;;-2.88;79.55;100287.00;10279080;23;20031;-75
2022/12/18 14:24:15;;;;;;;1999.90;999.90;;;;;;;-2.91;79.21;100287.72;10271888;23;20111;-75
2022/12/18 14:28:21;;;;;;;1999.90;999.90;;;;;;;-2.91;79.23;100294.44;10276417;23;20020;-75
2022/12/18 14:32:23;;;;;;;1999.90;999.90;;;;;;;-2.90;79.17;100296.22;10273308;23;20065;-75
2022/12/18 14:36:27;;;;;;;1999.90;999.90;;;;;;;-2.91;79.84;100299.53;10275688;23;20020;-75
2022/12/18 14:40:29;;;;;;;1999.90;999.90;;;;;;;-2.94;79.65;100295.13;10278378;23;20107;-76
2022/12/18 14:44:30;;;;;;;1999.90;999.90;;;;;;;-2.95;79.65;100301.00;10276783;23;20049;-75
2022/12/18 14:48:51;;;;;;;1999.90;999.90;;;;;;;-2.97;80.45;100300.03;10270246;23;20731;-75
2022/12/18 14:52:53;;;;;;;1999.90;999.90;;;;;;;-2.99;80.36;100301.59;10277107;23;20104;-75
2022/12/18 14:57:26;;;;;;;1999.90;999.90;;;;;;;-3.03;80.88;100307.28;10277203;23;20100;-75
2022/12/18 15:01:44;;;;;;;1999.90;999.90;;;;;;;-3.03;80.61;100314.91;10252779;23;20035;-75
2022/12/18 15:05:46;;;;;;;1999.90;999.90;;;;;;;-3.04;80.57;100315.69;10252176;23;20027;-75
2022/12/18 15:10:20;;;;;;;1999.90;999.90;;;;;;;-3.07;81.16;100308.72;10295564;23;20033;-75
2022/12/18 15:14:42;;;;;;;1999.90;999.90;;;;;;;-3.11;80.88;100316.03;10279220;23;20191;-76
2022/12/18 15:18:47;;;;;;;1999.90;999.90;;;;;;;-3.14;81.18;100314.19;10270490;23;20051;-75
2022/12/18 15:22:49;;;;;;;1999.90;999.90;;;;;;;-3.16;81.59;100312.34;10278606;23;20048;-75
2022/12/18 15:26:50;;;;;;;1999.90;999.90;;;;;;;-3.21;81.79;100321.34;10278231;23;20450;-76
2022/12/18 15:31:11;;;;;;;1999.90;999.90;;;;;;;-3.21;81.66;100322.22;10273175;23;20112;-77
2022/12/18 15:35:22;;;;;;;1999.90;999.90;;;;;;;-3.25;82.24;100320.22;10282383;23;20021;-76
2022/12/18 15:39:23;;;;;;;1999.90;999.90;;;;;;;-3.23;82.11;100323.78;10297287;23;20177;-76
2022/12/18 15:43:35;;;;;;;1999.90;999.90;;;;;;;-3.23;82.08;100308.53;10284487;23;20020;-77
2022/12/18 15:47:36;;;;;;;1999.90;999.90;;;;;;;-3.23;82.29;100302.53;10291293;23;20443;-78
2022/12/18 15:51:38;;;;;;;1999.90;999.90;;;;;;;-3.23;82.61;100295.84;10280855;23;20048;-78
2022/12/18 16:00:05;;;;;;;1999.90;999.90;;;;;;;-3.22;83.19;100309.41;10298519;23;20084;-76
2022/12/18 16:04:11;;;;;;;1999.90;999.90;;;;;;;-3.23;83.29;100294.94;10327593;23;20025;-84
2022/12/18 16:08:12;;;;;;;1999.90;999.90;;;;;;;-3.21;83.13;100298.47;10324590;23;20020;-84
2022/12/18 16:12:23;;;;;;;1999.90;999.90;;;;;;;-3.19;83.77;100299.44;10349066;23;20019;-80
2022/12/18 16:16:24;;;;;;;1999.90;999.90;;;;;;;-3.17;84.14;100305.50;10347423;23;20000;-80
2022/12/18 16:20:27;;;;;;;1999.90;999.90;;;;;;;-3.15;82.73;100306.47;10329246;23;20039;-79
2022/12/18 16:24:31;;;;;;;1999.90;999.90;;;;;;;-3.13;83.68;100295.63;10326038;23;20016;-85
2022/12/18 16:28:32;;;;;;;1999.90;999.90;;;;;;;-3.11;83.39;100291.53;10342111;23;20043;-81
2022/12/18 16:32:34;;;;;;;1999.90;999.90;;;;;;;-3.09;83.48;100305.19;10325905;23;20035;-83
2022/12/18 16:36:35;;;;;;;1999.90;999.90;;;;;;;-3.06;83.33;100301.97;10326287;23;20076;-82
2022/12/18 16:41:30;;;;;;;1999.90;999.90;;;;;;;-3.05;83.45;100297.03;10341758;23;20020;-81
2022/12/18 16:44:59;;;;;;;1999.90;999.90;;;;;;;-3.05;83.12;100293.59;10324779;23;20423;-80
2022/12/18 16:49:00;;;;;;;1999.90;999.90;;;;;;;-3.02;83.29;100293.78;10323900;23;20024;-79
2022/12/18 16:53:02;;;;;;;1999.90;999.90;;;;;;;-3.00;83.26;100309.13;10344062;23;20020;-80
2022/12/18 16:57:04;;;;;;;1999.90;999.90;;;;;;;-3.02;83.55;100303.94;10324982;23;20035;-78
2022/12/18 17:01:10;;;;;;;1999.90;999.90;;;;;;;-3.01;83.72;100299.75;10322704;23;20024;-79
2022/12/18 17:05:12;;;;;;;1999.90;999.90;;;;;;;-3.03;84.16;100294.56;10326511;23;20044;-79
2022/12/18 17:09:15;;;;;;;1999.90;999.90;;;;;;;-3.04;83.75;100292.81;10325878;23;20012;-79
2022/12/18 17:13:16;;;;;;;1999.90;999.90;;;;;;;-3.03;83.13;100293.69;10327297;23;20024;-78
2022/12/18 17:17:24;;;;;;;1999.90;999.90;;;;;;;-3.05;83.70;100293.59;10276938;23;20020;-78
2022/12/18 17:21:26;;;;;;;1999.90;999.90;;;;;;;-3.08;83.14;100291.72;10279549;23;20048;-80
2022/12/18 17:25:27;;;;;;;1999.90;999.90;;;;;;;-3.08;83.78;100285.75;10281899;23;20012;-78
2022/12/18 17:29:29;;;;;;;1999.90;999.90;;;;;;;-3.07;83.91;100272.28;10298973;23;20052;-78
2022/12/18 17:33:31;;;;;;;1999.90;999.90;;;;;;;-3.08;83.84;100271.41;10275474;23;20032;-78
2022/12/18 17:37:32;;;;;;;1999.90;999.90;;;;;;;-3.05;83.47;100264.00;10281691;23;20044;-78
2022/12/18 17:41:34;;;;;;;1999.90;999.90;;;;;;;-3.03;84.18;100261.56;10279746;23;20051;-78
2022/12/18 17:45:39;;;;;;;1999.90;999.90;;;;;;;-3.02;83.74;100250.59;10273951;23;20107;-77
2022/12/18 17:49:40;;;;;;;1999.90;999.90;;;;;;;-2.96;84.17;100255.19;10281906;23;20775;-77
2022/12/18 17:53:42;;;;;;;1999.90;999.90;;;;;;;-2.94;83.92;100246.00;10280714;23;20031;-77
2022/12/18 17:57:44;;;;;;;1999.90;999.90;;;;;;;-2.93;84.04;100247.75;10278850;23;20027;-77
2022/12/18 18:01:47;;;;;;;1999.90;999.90;;;;;;;-2.93;83.74;100235.03;10275405;23;20359;-78
2022/12/18 18:05:54;;;;;;;1999.90;999.90;;;;;;;-2.93;83.80;100228.31;10280807;23;20043;-79
2022/12/18 18:09:55;;;;;;;1999.90;999.90;;;;;;;-2.87;83.98;100235.41;10279478;23;20272;-79